Time;durP1;ratioP1;P1;durP2;ratioP2;P2;SDS_P1;SDS_P2;PMS_P1;PMS_P2;Temp;Humidity;BMP_temperature;BMP_pressure;BME280_temperature;BME280_humidity;BME280_pressure;Samples;Min_cycle;Max_cycle;Signal;HPM_P1;HPM_P2
2021/04/21 00:02:17;;;;;;;23.98;15.50;;;8.40;82.90;;;;;;5097318;28;20012;-81
2021/04/21 00:04:45;;;;;;;25.45;15.80;;;8.30;83.10;;;;;;5099034;28;20024;-82
2021/04/21 00:07:15;;;;;;;24.15;15.35;;;8.30;83.20;;;;;;5093812;28;20451;-80
2021/04/21 00:09:42;;;;;;;25.42;14.82;;;8.20;83.50;;;;;;5090759;28;20048;-80
2021/04/21 00:12:08;;;;;;;24.33;14.93;;;8.20;83.70;;;;;;5097857;28;20074;-81
2021/04/21 00:14:34;;;;;;;26.25;14.55;;;8.20;83.90;;;;;;5092160;28;20044;-79
2021/04/21 00:17:02;;;;;;;23.95;14.77;;;8.10;84.00;;;;;;5090391;28;20085;-78
2021/04/21 00:19:30;;;;;;;22.83;15.43;;;8.10;84.10;;;;;;5083482;28;20031;-78
2021/04/21 00:22:00;;;;;;;26.75;15.00;;;8.10;84.20;;;;;;5097058;28;20035;-79
2021/04/21 00:24:29;;;;;;;22.13;14.27;;;8.10;84.20;;;;;;5094544;28;20027;-75
2021/04/21 00:26:56;;;;;;;23.52;15.07;;;8.10;84.40;;;;;;5112355;28;20042;-77
2021/04/21 00:29:23;;;;;;;23.45;14.98;;;8.00;84.60;;;;;;5103218;28;20012;-77
2021/04/21 00:31:50;;;;;;;23.33;14.88;;;8.00;84.70;;;;;;5121003;28;20004;-79
2021/04/21 00:34:19;;;;;;;25.48;14.77;;;8.00;84.90;;;;;;5118105;28;20023;-79
2021/04/21 00:36:48;;;;;;;23.42;15.02;;;7.90;85.00;;;;;;5099334;28;20028;-71
2021/04/21 00:39:15;;;;;;;23.55;14.65;;;7.90;85.10;;;;;;5097881;28;20024;-78
2021/04/21 00:41:51;;;;;;;24.73;16.27;;;8.00;85.20;;;;;;5097422;28;20469;-79
2021/04/21 00:44:58;;;;;;;25.80;16.67;;;7.90;85.10;;;;;;5097442;28;20024;-79
2021/04/21 00:48:05;;;;;;;25.52;15.90;;;7.90;85.10;;;;;;5095536;28;20035;-79
2021/04/21 00:50:38;;;;;;;;;;;7.80;84.90;;;;;;5024691;28;20021;-81
2021/04/21 00:53:35;;;;;;;32.30;18.40;;;7.70;84.20;;;;;;5070282;28;19900;-81
2021/04/21 00:56:25;;;;;;;34.70;19.60;;;7.60;84.90;;;;;;5095401;28;20448;-81
2021/04/21 00:59:27;;;;;;;29.50;18.50;;;7.50;85.20;;;;;;5083078;28;20027;-81
2021/04/21 01:01:57;;;;;;;30.60;19.80;;;7.40;85.50;;;;;;5060361;28;20024;-79
2021/04/21 01:04:24;;;;;;;33.33;19.90;;;7.40;85.80;;;;;;5086487;28;20020;-80
2021/04/21 01:06:53;;;;;;;32.75;19.17;;;7.40;86.00;;;;;;5091617;28;20034;-79
2021/04/21 01:09:22;;;;;;;27.15;18.13;;;7.40;86.40;;;;;;5082275;28;20085;-79
2021/04/21 01:11:51;;;;;;;28.20;18.27;;;7.30;86.60;;;;;;5095172;28;20020;-79
2021/04/21 01:14:24;;;;;;;29.98;18.33;;;7.30;87.00;;;;;;5073700;28;20019;-80
2021/04/21 01:16:56;;;;;;;30.48;19.65;;;7.30;87.30;;;;;;5088414;28;20059;-79
2021/04/21 01:19:42;;;;;;;30.77;19.48;;;7.30;87.50;;;;;;5087741;28;20020;-78
2021/04/21 01:22:18;;;;;;;27.92;17.58;;;7.30;87.60;;;;;;5089325;28;20026;-77
2021/04/21 01:24:59;;;;;;;29.55;18.13;;;7.30;87.70;;;;;;5094707;28;20450;-80
2021/04/21 01:27:49;;;;;;;28.13;18.05;;;7.20;87.80;;;;;;5095754;28;20369;-78
2021/04/21 01:30:19;;;;;;;29.63;18.48;;;7.20;87.90;;;;;;5093616;28;20366;-78
2021/04/21 01:32:48;;;;;;;34.42;21.63;;;7.20;88.00;;;;;;5093749;28;20024;-78
2021/04/21 01:35:19;;;;;;;33.40;21.88;;;7.20;87.90;;;;;;5092367;28;20353;-77
2021/04/21 01:37:46;;;;;;;37.30;24.08;;;7.20;88.10;;;;;;5081081;28;20024;-79
2021/04/21 01:40:36;;;;;;;34.33;23.95;;;7.20;87.90;;;;;;5090221;28;20056;-80
2021/04/21 01:43:08;;;;;;;34.83;23.13;;;7.20;87.80;;;;;;5091829;28;20027;-80
2021/04/21 01:45:35;;;;;;;38.42;25.58;;;7.20;87.90;;;;;;5094284;28;20103;-78
2021/04/21 01:48:07;;;;;;;40.13;23.88;;;7.10;87.80;;;;;;5094215;28;20023;-79
2021/04/21 01:50:33;;;;;;;35.97;22.33;;;7.10;88.00;;;;;;5078275;28;20047;-79
2021/04/21 01:53:33;;;;;;;35.30;21.63;;;7.10;88.40;;;;;;5094491;28;20041;-78
2021/04/21 01:56:16;;;;;;;36.55;22.10;;;7.10;88.90;;;;;;5072988;28;20021;-80
2021/04/21 01:58:58;;;;;;;31.40;19.85;;;7.10;89.30;;;;;;5087706;28;20028;-78
2021/04/21 02:01:41;;;;;;;32.63;20.02;;;7.20;89.30;;;;;;5084625;28;20027;-79
2021/04/21 02:04:34;;;;;;;33.75;20.60;;;7.20;88.90;;;;;;5090680;28;20028;-80
2021/04/21 02:07:18;;;;;;;32.67;20.73;;;7.20;88.20;;;;;;5094098;28;20034;-79
2021/04/21 02:10:20;;;;;;;31.20;19.85;;;7.10;88.30;;;;;;5080401;28;20039;-79
2021/04/21 02:12:53;;;;;;;36.35;21.25;;;7.10;88.60;;;;;;5093274;28;20830;-79
2021/04/21 02:15:43;;;;;;;35.25;20.23;;;7.00;89.10;;;;;;5082028;28;20017;-79
2021/04/21 02:18:20;;;;;;;32.22;19.98;;;7.00;89.60;;;;;;5092126;28;20035;-79
2021/04/21 02:21:33;;;;;;;31.98;19.30;;;7.00;90.00;;;;;;5093030;28;20189;-80
2021/04/21 02:24:24;;;;;;;35.08;20.75;;;7.00;90.10;;;;;;5048306;28;20089;-80
2021/04/21 02:27:03;;;;;;;34.13;19.60;;;7.00;90.00;;;;;;5094513;28;20055;-78
2021/04/21 02:29:38;;;;;;;32.03;19.92;;;7.00;90.00;;;;;;5092844;28;20307;-80
2021/04/21 02:32:23;;;;;;;34.28;20.35;;;7.00;90.00;;;;;;5093720;28;20020;-79
2021/04/21 02:35:13;;;;;;;35.53;21.27;;;7.00;90.00;;;;;;5090663;28;20505;-78
2021/04/21 02:38:14;;;;;;;32.03;19.65;;;6.90;90.00;;;;;;5097517;28;20458;-78
2021/04/21 02:41:00;;;;;;;33.20;20.45;;;6.90;90.20;;;;;;5115866;28;20024;-76
2021/04/21 02:43:42;;;;;;;;;;;7.00;90.30;;;;;;5111673;28;20603;-79
2021/04/21 02:46:29;;;;;;;35.10;20.98;;;7.00;89.90;;;;;;5109448;28;19981;-75
2021/04/21 02:49:27;;;;;;;35.03;21.23;;;7.00;90.10;;;;;;5092210;28;20044;-79
2021/04/21 02:52:27;;;;;;;34.90;20.83;;;7.00;90.10;;;;;;5047121;28;20032;-79
2021/04/21 02:54:53;;;;;;;34.58;20.85;;;7.00;90.10;;;;;;5083502;28;20077;-79
2021/04/21 02:57:24;;;;;;;36.65;21.10;;;7.00;90.20;;;;;;5090520;28;20020;-80
2021/04/21 02:59:57;;;;;;;35.25;20.17;;;6.90;90.20;;;;;;5091624;28;20490;-72
2021/04/21 03:02:29;;;;;;;34.08;20.90;;;6.90;90.20;;;;;;5089678;28;20016;-79
2021/04/21 03:05:03;;;;;;;36.85;22.40;;;7.00;90.40;;;;;;5089279;28;20389;-78
2021/04/21 03:07:55;;;;;;;37.95;21.48;;;7.00;90.50;;;;;;5091248;28;20027;-77
2021/04/21 03:10:25;;;;;;;36.47;21.90;;;7.10;90.60;;;;;;5091984;28;20040;-79
2021/04/21 03:13:18;;;;;;;42.90;25.02;;;7.10;90.50;;;;;;5091089;28;20042;-79
2021/04/21 03:15:49;;;;;;;39.47;22.50;;;7.20;90.50;;;;;;5091252;28;20043;-79
2021/04/21 03:18:19;;;;;;;37.45;23.00;;;7.20;90.60;;;;;;5088621;28;20031;-79
2021/04/21 03:20:59;;;;;;;37.47;22.50;;;7.20;90.70;;;;;;5092113;28;20036;-79
2021/04/21 03:23:27;;;;;;;37.13;23.77;;;7.30;90.60;;;;;;5091611;28;20456;-78
2021/04/21 03:25:56;;;;;;;42.17;27.10;;;7.30;90.40;;;;;;5090923;28;20024;-78
2021/04/21 03:28:23;;;;;;;50.97;27.20;;;7.40;90.60;;;;;;5093343;28;20089;-79
2021/04/21 03:30:53;;;;;;;53.00;27.02;;;7.50;90.60;;;;;;5093265;28;20472;-79
2021/04/21 03:33:43;;;;;;;51.38;27.80;;;7.50;90.50;;;;;;5092780;28;20038;-78
2021/04/21 03:36:09;;;;;;;55.67;27.52;;;7.70;90.40;;;;;;5090445;28;20036;-78
2021/04/21 03:38:36;;;;;;;70.55;28.60;;;7.80;90.20;;;;;;5090926;28;20028;-78
2021/04/21 03:41:02;;;;;;;64.00;27.63;;;7.90;90.20;;;;;;5088791;28;20118;-78
2021/04/21 03:43:28;;;;;;;51.35;26.17;;;8.00;90.00;;;;;;5091600;28;20047;-79
2021/04/21 03:45:55;;;;;;;43.17;24.92;;;8.10;89.80;;;;;;5093346;28;20012;-79
2021/04/21 03:48:21;;;;;;;44.53;25.42;;;8.40;90.20;;;;;;5090390;28;20019;-79
2021/04/21 03:50:52;;;;;;;43.33;26.08;;;8.70;90.40;;;;;;5090193;28;20039;-77
2021/04/21 03:53:19;;;;;;;43.65;25.85;;;9.00;90.30;;;;;;5087881;28;20099;-78
2021/04/21 03:55:46;;;;;;;37.63;23.42;;;9.30;89.70;;;;;;5089207;28;20531;-80
2021/04/21 03:58:17;;;;;;;38.20;22.23;;;9.60;88.80;;;;;;5086341;28;20028;-80
2021/04/21 04:00:45;;;;;;;30.95;20.80;;;9.80;86.50;;;;;;5089385;28;20683;-79
2021/04/21 04:03:16;;;;;;;31.88;20.15;;;9.80;84.70;;;;;;5087125;28;20016;-80
2021/04/21 04:06:04;;;;;;;32.88;20.50;;;9.80;83.10;;;;;;5088316;28;20033;-73
2021/04/21 04:09:14;;;;;;;33.72;21.13;;;9.90;84.20;;;;;;5090393;28;20040;-72
2021/04/21 04:11:46;;;;;;;33.50;21.48;;;10.30;85.70;;;;;;5015858;28;20492;-74
2021/04/21 04:14:32;;;;;;;32.25;21.08;;;10.80;85.50;;;;;;5051659;28;20032;-73
2021/04/21 04:17:00;;;;;;;35.13;19.70;;;11.30;83.70;;;;;;5047215;28;20074;-75
2021/04/21 04:19:27;;;;;;;27.98;18.75;;;11.80;82.30;;;;;;5054332;28;20108;-74
2021/04/21 04:22:04;;;;;;;27.77;19.58;;;12.10;80.00;;;;;;5044319;28;20037;-74
2021/04/21 04:24:37;;;;;;;29.88;18.42;;;12.50;78.30;;;;;;5053389;28;20025;-74
2021/04/21 04:27:06;;;;;;;29.38;19.85;;;12.80;77.60;;;;;;5052195;28;20029;-78
2021/04/21 04:29:33;;;;;;;30.70;19.42;;;13.20;76.10;;;;;;5057398;28;20025;-84
2021/04/21 04:32:02;;;;;;;26.08;18.33;;;13.50;74.10;;;;;;5067210;28;20013;-81
2021/04/21 04:34:30;;;;;;;23.98;17.90;;;13.80;72.90;;;;;;5064118;28;20037;-78
2021/04/21 04:36:56;;;;;;;27.88;18.63;;;14.10;71.50;;;;;;5061863;28;20072;-81
2021/04/21 04:39:23;;;;;;;27.15;17.52;;;14.30;70.50;;;;;;5065534;28;20050;-83
2021/04/21 04:41:49;;;;;;;27.30;17.67;;;14.50;69.30;;;;;;5078192;28;20080;-80
2021/04/21 04:44:16;;;;;;;25.13;18.35;;;14.80;68.40;;;;;;5067413;28;20027;-72
2021/04/21 04:46:49;;;;;;;26.02;18.98;;;15.20;67.60;;;;;;5060360;28;20367;-73
2021/04/21 04:49:18;;;;;;;28.55;21.30;;;15.50;65.70;;;;;;5057692;28;20025;-73
2021/04/21 04:51:46;;;;;;;28.52;21.13;;;15.90;64.80;;;;;;5061226;28;20033;-73
2021/04/21 04:54:14;;;;;;;32.80;22.67;;;16.20;63.70;;;;;;5055658;28;20021;-74
2021/04/21 04:56:44;;;;;;;31.00;22.35;;;16.40;62.20;;;;;;5062239;28;20002;-74
2021/04/21 04:59:11;;;;;;;26.92;21.85;;;16.70;61.40;;;;;;5055105;28;20017;-74
2021/04/21 05:01:58;;;;;;;26.52;18.52;;;16.80;60.20;;;;;;5058735;28;20016;-74
2021/04/21 05:04:47;;;;;;;23.95;17.42;;;16.50;59.10;;;;;;5049298;28;20086;-74
2021/04/21 05:07:18;;;;;;;25.35;17.40;;;16.20;59.40;;;;;;5053205;28;20367;-74
2021/04/21 05:09:49;;;;;;;26.33;17.85;;;15.90;59.40;;;;;;5072201;28;20047;-74
2021/04/21 05:12:21;;;;;;;27.42;18.90;;;15.40;59.70;;;;;;5093822;28;20691;-74
2021/04/21 05:14:48;;;;;;;27.75;17.48;;;14.90;60.40;;;;;;5092902;28;20036;-74
2021/04/21 05:17:33;;;;;;;25.98;18.95;;;14.70;61.20;;;;;;5092640;28;20103;-74
2021/04/21 05:20:10;;;;;;;30.35;19.30;;;14.40;62.10;;;;;;5093557;28;20073;-74
2021/04/21 05:23:13;;;;;;;26.02;17.58;;;14.30;62.50;;;;;;5091583;28;20020;-73
2021/04/21 05:26:29;;;;;;;30.60;18.33;;;14.30;62.80;;;;;;5093064;28;20020;-74
2021/04/21 05:29:52;;;;;;;30.07;19.03;;;14.00;63.30;;;;;;5090495;28;20028;-72
2021/04/21 05:32:49;;;;;;;25.02;16.60;;;13.70;64.00;;;;;;5049295;28;20272;-72
2021/04/21 05:35:26;;;;;;;27.30;16.38;;;13.60;64.20;;;;;;5046186;28;20079;-74
2021/04/21 05:38:18;;;;;;;25.02;15.57;;;13.50;64.20;;;;;;5085510;28;20027;-76
2021/04/21 05:41:09;;;;;;;20.17;13.48;;;13.40;64.60;;;;;;5076528;28;20804;-82
2021/04/21 05:44:02;;;;;;;18.50;12.88;;;13.30;64.70;;;;;;5092376;28;20477;-81
2021/04/21 05:46:46;;;;;;;17.85;12.73;;;13.20;65.00;;;;;;5088363;28;20021;-77
2021/04/21 05:49:36;;;;;;;18.50;11.50;;;13.20;65.70;;;;;;5080192;28;20343;-86
2021/04/21 05:52:40;;;;;;;16.08;10.38;;;13.60;66.40;;;;;;5087741;28;20031;-84
2021/04/21 05:55:17;;;;;;;17.30;11.88;;;13.90;65.40;;;;;;5089045;28;20114;-71
2021/04/21 05:58:22;;;;;;;14.95;9.88;;;13.90;65.70;;;;;;5092475;28;20520;-80
2021/04/21 06:01:22;;;;;;;17.95;10.68;;;13.90;64.80;;;;;;5023209;28;20032;-74
2021/04/21 06:03:52;;;;;;;14.63;10.32;;;13.90;64.40;;;;;;5089508;28;20031;-77
2021/04/21 06:06:18;;;;;;;15.10;10.18;;;13.90;64.00;;;;;;5093900;28;20465;-70
2021/04/21 06:08:43;;;;;;;15.60;10.25;;;13.70;64.00;;;;;;5092157;28;20091;-77
2021/04/21 06:11:36;;;;;;;15.23;10.73;;;13.60;64.20;;;;;;5092871;28;20477;-75
2021/04/21 06:14:05;;;;;;;15.50;10.50;;;13.50;64.30;;;;;;5092447;28;20573;-80
2021/04/21 06:16:32;;;;;;;18.30;10.63;;;13.40;64.40;;;;;;5083556;28;20054;-77
2021/04/21 06:19:03;;;;;;;17.10;10.88;;;13.30;64.60;;;;;;5091332;28;20124;-72
2021/04/21 06:21:32;;;;;;;18.02;11.27;;;13.20;65.10;;;;;;5091173;28;20104;-79
2021/04/21 06:23:58;;;;;;;18.58;12.30;;;13.10;65.50;;;;;;5091372;28;20020;-78
2021/04/21 06:26:28;;;;;;;24.73;13.55;;;12.80;65.90;;;;;;5091652;28;20066;-78
2021/04/21 06:29:07;;;;;;;19.65;12.32;;;12.60;66.50;;;;;;5103281;28;20050;-78
2021/04/21 06:31:38;;;;;;;21.95;12.75;;;12.20;67.30;;;;;;5093573;28;20028;-78
2021/04/21 06:34:06;;;;;;;21.15;12.90;;;12.00;68.30;;;;;;5114729;28;20039;-78
2021/04/21 06:36:34;;;;;;;18.45;13.40;;;11.80;69.50;;;;;;5103669;28;20400;-78
2021/04/21 06:39:00;;;;;;;19.27;12.60;;;11.70;70.50;;;;;;5105481;28;20066;-78
2021/04/21 06:41:27;;;;;;;20.38;13.32;;;11.50;71.40;;;;;;5101894;28;20099;-78
2021/04/21 06:43:55;;;;;;;19.50;13.68;;;11.30;72.30;;;;;;5104073;28;20374;-79
2021/04/21 06:46:21;;;;;;;21.77;14.23;;;11.10;73.00;;;;;;5090293;28;20088;-77
2021/04/21 06:48:56;;;;;;;23.02;15.20;;;11.00;74.00;;;;;;5106603;28;20428;-79
2021/04/21 06:51:24;;;;;;;24.92;15.85;;;10.90;75.10;;;;;;5100943;28;20031;-79
2021/04/21 06:53:52;;;;;;;28.52;16.90;;;10.80;75.80;;;;;;5096423;28;20023;-77
2021/04/21 06:56:27;;;;;;;25.90;16.50;;;10.80;76.70;;;;;;5094326;28;20012;-77
2021/04/21 06:58:53;;;;;;;23.23;17.52;;;10.90;77.70;;;;;;5099848;28;20020;-78
2021/04/21 07:01:24;;;;;;;23.67;17.83;;;11.10;77.70;;;;;;5099100;28;20363;-78
2021/04/21 07:03:51;;;;;;;20.60;15.35;;;11.20;78.10;;;;;;5092986;28;20469;-78
2021/04/21 07:06:16;;;;;;;23.67;15.95;;;11.30;78.00;;;;;;5083473;28;20107;-78
2021/04/21 07:08:42;;;;;;;21.40;15.48;;;11.30;78.60;;;;;;5087709;28;20108;-76
2021/04/21 07:11:10;;;;;;;19.42;13.70;;;11.50;79.80;;;;;;5094131;28;20020;-78
2021/04/21 07:13:40;;;;;;;17.35;12.80;;;12.00;81.40;;;;;;5093729;28;20034;-78
2021/04/21 07:16:10;;;;;;;24.10;14.40;;;12.90;83.60;;;;;;5093044;28;20024;-79
2021/04/21 07:18:39;;;;;;;27.63;14.48;;;14.10;82.50;;;;;;5092075;28;20066;-77
2021/04/21 07:21:06;;;;;;;20.85;12.65;;;15.20;77.80;;;;;;5093525;28;20020;-78
2021/04/21 07:23:34;;;;;;;17.02;12.52;;;15.70;73.30;;;;;;5081402;28;20111;-79
2021/04/21 07:26:00;;;;;;;13.10;9.15;;;16.00;70.60;;;;;;5090950;28;20051;-78
2021/04/21 07:28:26;;;;;;;13.00;9.45;;;16.50;68.10;;;;;;5093061;28;20032;-77
2021/04/21 07:30:54;;;;;;;12.57;9.57;;;16.90;66.50;;;;;;5093280;28;20020;-79
2021/04/21 07:33:37;;;;;;;12.38;9.50;;;17.30;64.80;;;;;;5093005;28;20017;-80
2021/04/21 07:36:18;;;;;;;15.00;9.70;;;17.30;63.00;;;;;;5092907;28;20012;-79
2021/04/21 07:38:46;;;;;;;10.55;8.02;;;17.70;62.70;;;;;;5092686;28;20031;-80
2021/04/21 07:41:14;;;;;;;10.75;8.30;;;17.90;61.60;;;;;;5092638;28;20024;-80
2021/04/21 07:43:48;;;;;;;13.25;8.23;;;18.20;61.00;;;;;;5086534;28;20024;-80
2021/04/21 07:46:20;;;;;;;10.13;7.38;;;18.60;60.50;;;;;;5084661;28;20065;-79
2021/04/21 07:48:47;;;;;;;7.07;5.78;;;18.80;58.90;;;;;;5092361;28;20125;-80
2021/04/21 07:51:16;;;;;;;8.23;5.68;;;18.50;56.40;;;;;;5108696;28;20418;-79
2021/04/21 07:53:46;;;;;;;7.22;5.68;;;17.80;55.60;;;;;;5092593;28;20020;-79
2021/04/21 07:56:11;;;;;;;8.93;6.53;;;17.10;55.80;;;;;;5093409;28;20468;-79
2021/04/21 07:58:37;;;;;;;12.90;7.70;;;16.50;56.90;;;;;;5092310;28;20028;-78
2021/04/21 08:01:03;;;;;;;15.20;10.65;;;15.90;58.30;;;;;;5083897;28;20127;-79
2021/04/21 08:03:28;;;;;;;10.40;7.45;;;15.60;59.80;;;;;;5086801;28;20016;-79
2021/04/21 08:05:54;;;;;;;10.15;8.02;;;15.50;61.20;;;;;;5092845;28;20016;-79
2021/04/21 08:08:27;;;;;;;9.32;6.90;;;15.60;61.40;;;;;;5092975;28;20049;-79
2021/04/21 08:10:53;;;;;;;10.38;7.50;;;16.00;61.60;;;;;;5092367;28;20463;-79
2021/04/21 08:13:45;;;;;;;11.32;8.50;;;16.40;61.30;;;;;;5092459;28;20030;-78
2021/04/21 08:16:31;;;;;;;10.18;7.20;;;16.60;60.80;;;;;;5088259;28;20024;-80
2021/04/21 08:18:58;;;;;;;10.45;6.80;;;17.30;61.40;;;;;;5091627;28;20431;-78
2021/04/21 08:21:38;;;;;;;9.52;7.40;;;18.20;59.90;;;;;;5112257;28;20366;-80
2021/04/21 08:24:18;;;;;;;8.52;6.57;;;18.80;58.30;;;;;;5096358;28;20020;-79
2021/04/21 08:26:47;;;;;;;13.00;7.07;;;19.10;56.00;;;;;;5096756;28;20032;-79
2021/04/21 08:29:15;;;;;;;10.38;7.47;;;19.00;54.90;;;;;;5095292;28;20111;-80
2021/04/21 08:31:46;;;;;;;10.60;7.80;;;18.70;54.40;;;;;;5095536;28;20030;-80
2021/04/21 08:34:12;;;;;;;9.18;7.00;;;18.30;55.00;;;;;;5095844;28;20016;-80
2021/04/21 08:36:39;;;;;;;9.82;7.30;;;18.00;55.10;;;;;;5112112;28;20036;-81
2021/04/21 08:39:05;;;;;;;9.05;6.85;;;17.80;55.20;;;;;;5096985;28;20366;-81
2021/04/21 08:41:35;;;;;;;11.27;8.20;;;17.80;55.80;;;;;;5099248;28;20012;-78
2021/04/21 08:44:02;;;;;;;9.10;7.10;;;17.70;55.20;;;;;;5115895;28;20031;-79
2021/04/21 08:46:29;;;;;;;9.77;7.60;;;17.40;55.40;;;;;;5120346;28;20053;-74
2021/04/21 08:48:59;;;;;;;9.85;7.43;;;16.90;56.00;;;;;;5093862;28;20020;-77
2021/04/21 08:51:26;;;;;;;11.13;7.28;;;16.40;57.20;;;;;;5110604;28;20047;-79
2021/04/21 08:53:58;;;;;;;6.38;4.78;;;15.90;58.90;;;;;;5114560;28;20016;-79
2021/04/21 08:56:25;;;;;;;6.47;4.70;;;15.30;58.20;;;;;;5097688;28;20020;-77
2021/04/21 08:58:52;;;;;;;8.15;5.63;;;14.60;58.00;;;;;;5097111;28;20377;-79
2021/04/21 09:01:19;;;;;;;10.55;6.45;;;14.00;59.90;;;;;;5097144;28;20028;-79
2021/04/21 09:03:48;;;;;;;11.57;7.55;;;13.70;61.90;;;;;;5096965;28;20027;-79
2021/04/21 09:06:18;;;;;;;11.95;7.95;;;13.50;64.00;;;;;;5099525;28;20047;-78
2021/04/21 09:08:50;;;;;;;10.32;7.22;;;13.50;65.80;;;;;;5079872;28;20024;-78
2021/04/21 09:11:18;;;;;;;10.00;7.35;;;14.00;69.50;;;;;;5095715;28;20016;-78
2021/04/21 09:13:45;;;;;;;8.52;6.40;;;15.20;71.90;;;;;;5095486;28;20511;-77
2021/04/21 09:16:11;;;;;;;8.73;6.70;;;16.60;70.80;;;;;;5095468;28;20016;-79
2021/04/21 09:18:37;;;;;;;8.90;7.10;;;18.00;67.10;;;;;;5094839;28;20055;-79
2021/04/21 09:21:06;;;;;;;9.93;7.50;;;18.50;63.10;;;;;;5095164;28;20362;-79
2021/04/21 09:23:36;;;;;;;10.35;6.57;;;18.70;60.70;;;;;;5095366;28;20408;-79
2021/04/21 09:26:22;;;;;;;8.13;6.55;;;18.60;58.40;;;;;;5074942;28;20024;-79
2021/04/21 09:28:54;;;;;;;10.68;8.73;;;18.30;57.10;;;;;;5090387;28;20123;-79
2021/04/21 09:31:37;;;;;;;10.55;8.23;;;17.90;57.50;;;;;;5090148;28;20032;-79
2021/04/21 09:34:16;;;;;;;9.90;6.97;;;18.10;59.00;;;;;;5073808;28;20110;-79
2021/04/21 09:36:47;;;;;;;8.85;7.20;;;18.50;58.60;;;;;;5077051;28;20025;-79
2021/04/21 09:39:18;;;;;;;8.77;6.97;;;18.70;57.80;;;;;;5089106;28;20055;-78
2021/04/21 09:41:45;;;;;;;9.88;7.95;;;19.20;56.40;;;;;;5094825;28;20095;-80
2021/04/21 09:44:21;;;;;;;11.10;7.55;;;19.00;54.00;;;;;;5094935;28;20024;-80
2021/04/21 09:46:48;;;;;;;10.15;8.27;;;18.40;53.60;;;;;;5093955;28;20020;-81
2021/04/21 09:49:29;;;;;;;10.05;7.78;;;17.40;54.50;;;;;;5094589;28;20039;-80
2021/04/21 09:51:56;;;;;;;10.80;8.85;;;16.60;56.10;;;;;;5094409;28;20039;-80
2021/04/21 09:54:35;;;;;;;12.55;9.23;;;16.00;58.30;;;;;;5094819;28;20043;-80
2021/04/21 09:57:12;;;;;;;11.88;8.93;;;15.50;59.80;;;;;;5094137;28;20035;-79
2021/04/21 09:59:39;;;;;;;9.25;7.80;;;15.20;61.10;;;;;;5093327;28;20020;-79
2021/04/21 10:02:41;;;;;;;9.40;7.50;;;15.00;61.50;;;;;;5094465;28;20024;-80
2021/04/21 10:05:29;;;;;;;10.15;7.50;;;14.90;62.30;;;;;;5110307;28;20097;-79
2021/04/21 10:08:24;;;;;;;9.50;7.82;;;14.90;62.20;;;;;;5093194;28;20024;-80
2021/04/21 10:11:02;;;;;;;10.73;8.17;;;14.90;62.50;;;;;;5094221;28;20036;-79
2021/04/21 10:13:48;;;;;;;11.85;8.18;;;15.00;62.40;;;;;;5110288;28;20027;-79
2021/04/21 10:16:15;;;;;;;8.70;6.60;;;15.20;63.50;;;;;;5094177;28;20019;-79
2021/04/21 10:18:42;;;;;;;9.68;6.78;;;16.10;63.90;;;;;;5079298;28;20426;-80
2021/04/21 10:21:10;;;;;;;8.23;6.50;;;17.10;62.60;;;;;;5093418;28;20077;-80
2021/04/21 10:23:36;;;;;;;8.63;6.40;;;18.10;62.10;;;;;;5094484;28;20077;-80
2021/04/21 10:26:04;;;;;;;8.18;5.88;;;19.30;60.10;;;;;;5093649;28;20396;-80
2021/04/21 10:28:35;;;;;;;6.63;5.25;;;20.20;56.20;;;;;;5094126;28;20103;-80
2021/04/21 10:31:27;;;;;;;8.48;5.68;;;20.80;53.50;;;;;;5109821;28;20016;-80
2021/04/21 10:33:53;;;;;;;6.07;4.63;;;21.60;52.00;;;;;;5090408;28;20066;-80
2021/04/21 10:36:19;;;;;;;7.15;5.03;;;21.90;48.70;;;;;;5093735;28;20024;-80
2021/04/21 10:38:45;;;;;;;7.95;5.50;;;21.60;46.60;;;;;;5094074;28;20028;-79
2021/04/21 10:41:35;;;;;;;6.45;4.70;;;21.20;46.40;;;;;;5092379;28;20063;-79
2021/04/21 10:44:11;;;;;;;9.07;5.03;;;20.50;47.00;;;;;;5085034;28;20385;-80
2021/04/21 10:46:57;;;;;;;32.00;11.30;;;20.10;47.50;;;;;;5097543;28;20031;-79
2021/04/21 10:49:43;;;;;;;20.70;10.05;;;19.60;48.80;;;;;;5097730;28;20027;-80
2021/04/21 10:52:14;;;;;;;27.60;9.85;;;19.10;50.00;;;;;;5097269;28;20458;-79
2021/04/21 10:54:41;;;;;;;18.85;8.23;;;18.80;50.10;;;;;;5112214;28;20400;-80
2021/04/21 10:57:21;;;;;;;6.72;5.07;;;18.40;50.60;;;;;;5082776;28;20378;-79
2021/04/21 11:00:24;;;;;;;6.53;5.05;;;18.10;49.80;;;;;;5099885;28;20047;-79
2021/04/21 11:02:56;;;;;;;7.13;5.18;;;17.80;50.50;;;;;;5109927;28;20515;-79
2021/04/21 11:05:29;;;;;;;7.05;4.50;;;17.30;51.90;;;;;;5093841;28;20020;-79
2021/04/21 11:08:00;;;;;;;7.53;5.13;;;16.80;52.50;;;;;;5093879;28;20047;-79
2021/04/21 11:10:38;;;;;;;8.95;6.20;;;16.50;52.60;;;;;;5092334;28;20465;-77
2021/04/21 11:13:06;;;;;;;8.68;5.97;;;16.40;53.00;;;;;;5083156;28;20471;-80
2021/04/21 11:15:37;;;;;;;6.93;6.03;;;16.30;53.20;;;;;;5089235;28;20021;-78
2021/04/21 11:18:10;;;;;;;8.32;5.85;;;16.40;54.10;;;;;;5092926;28;20358;-79
2021/04/21 11:20:48;;;;;;;12.23;5.70;;;17.30;55.20;;;;;;5092505;28;20043;-79
2021/04/21 11:23:45;;;;;;;7.18;5.30;;;18.50;53.20;;;;;;5083230;28;20009;-79
2021/04/21 11:26:23;;;;;;;6.15;4.15;;;19.60;52.20;;;;;;5071277;28;20021;-78
2021/04/21 11:28:59;;;;;;;6.30;4.05;;;20.40;50.20;;;;;;5069245;28;20029;-79
2021/04/21 11:31:40;;;;;;;10.80;4.43;;;20.90;48.80;;;;;;5069793;28;20451;-78
2021/04/21 11:34:30;;;;;;;5.97;4.32;;;21.30;47.00;;;;;;5086798;28;20044;-79
2021/04/21 11:36:58;;;;;;;5.68;4.10;;;21.50;46.50;;;;;;5082512;28;20048;-79
2021/04/21 11:42:40;;;;;;;5.93;4.20;;;20.50;44.80;;;;;;5092625;28;20485;-78
2021/04/21 11:45:20;;;;;;;5.32;3.88;;;19.80;45.00;;;;;;5092607;28;20044;-79
2021/04/21 11:47:48;;;;;;;6.40;4.60;;;19.00;45.40;;;;;;5108904;28;20466;-78
2021/04/21 11:50:17;;;;;;;7.55;4.53;;;18.00;46.90;;;;;;5094575;28;20020;-79
2021/04/21 11:52:58;;;;;;;5.97;4.43;;;17.00;48.80;;;;;;5097207;28;20052;-79
2021/04/21 11:55:29;;;;;;;8.75;4.43;;;16.30;50.50;;;;;;5081409;28;20443;-78
2021/04/21 11:58:02;;;;;;;4.95;4.10;;;15.60;52.10;;;;;;5085728;28;20028;-79
2021/04/21 12:00:43;;;;;;;6.38;4.60;;;15.10;53.60;;;;;;5093169;28;20027;-78
2021/04/21 12:03:45;;;;;;;7.15;5.20;;;14.80;54.50;;;;;;5097018;28;20028;-78
2021/04/21 12:06:13;;;;;;;6.22;5.20;;;14.50;55.40;;;;;;5062523;28;20024;-78
2021/04/21 12:08:50;;;;;;;6.07;5.30;;;14.30;56.20;;;;;;5080653;28;20024;-78
2021/04/21 12:11:28;;;;;;;7.28;5.45;;;14.30;57.50;;;;;;5096976;28;20024;-79
2021/04/21 12:13:54;;;;;;;6.35;5.22;;;14.40;58.00;;;;;;5080835;28;20088;-78
2021/04/21 12:16:26;;;;;;;7.20;5.47;;;14.70;58.00;;;;;;5096566;28;20095;-79
2021/04/21 12:18:58;;;;;;;6.45;4.75;;;15.00;57.90;;;;;;5080696;28;20074;-79
2021/04/21 12:21:28;;;;;;;6.15;4.70;;;15.30;57.20;;;;;;5087649;28;20021;-79
2021/04/21 12:24:01;;;;;;;7.30;4.45;;;15.70;56.20;;;;;;5090646;28;20103;-77
2021/04/21 12:26:38;;;;;;;7.15;5.10;;;15.90;55.10;;;;;;5081719;28;20040;-77
2021/04/21 12:29:16;;;;;;;10.18;5.25;;;16.20;54.00;;;;;;5095080;28;20389;-79
2021/04/21 12:31:43;;;;;;;6.35;4.50;;;16.30;53.40;;;;;;5096400;28;20016;-79
2021/04/21 12:34:22;;;;;;;6.30;3.80;;;16.30;52.60;;;;;;5095012;28;20020;-79
2021/04/21 12:36:50;;;;;;;4.85;3.38;;;16.40;52.50;;;;;;5094885;28;20346;-79
2021/04/21 12:39:22;;;;;;;5.72;3.80;;;16.40;51.80;;;;;;5096195;28;20077;-78
2021/04/21 12:41:54;;;;;;;5.35;3.67;;;16.50;51.60;;;;;;5096262;28;20043;-80
2021/04/21 12:44:30;;;;;;;14.52;4.50;;;16.50;51.30;;;;;;5096511;28;20020;-79
2021/04/21 12:47:02;;;;;;;17.77;4.55;;;16.40;50.90;;;;;;5077010;28;20610;-80
2021/04/21 12:49:37;;;;;;;13.63;4.25;;;16.40;50.60;;;;;;5087358;28;20024;-79
2021/04/21 12:52:05;;;;;;;6.88;3.75;;;16.40;50.40;;;;;;5081262;28;20024;-79
2021/04/21 12:54:33;;;;;;;8.10;4.00;;;16.50;50.00;;;;;;5099389;28;20043;-78
2021/04/21 12:56:59;;;;;;;6.10;3.60;;;16.70;49.80;;;;;;5098776;28;20433;-79
2021/04/21 12:59:24;;;;;;;5.57;3.60;;;16.70;49.40;;;;;;5092786;28;20050;-79
2021/04/21 13:01:50;;;;;;;7.30;3.97;;;16.70;49.50;;;;;;5094671;28;20089;-79
2021/04/21 13:04:16;;;;;;;6.57;3.70;;;16.80;48.90;;;;;;5089477;28;20027;-80
2021/04/21 13:06:51;;;;;;;4.90;3.55;;;16.80;48.80;;;;;;5093240;28;20020;-80
2021/04/21 13:09:19;;;;;;;7.15;4.40;;;16.80;48.60;;;;;;5096614;28;20365;-79
2021/04/21 13:11:49;;;;;;;4.68;3.63;;;16.70;48.90;;;;;;5114181;28;20454;-79
2021/04/21 13:14:22;;;;;;;6.82;5.63;;;16.50;48.70;;;;;;5094347;28;20039;-79
2021/04/21 13:16:52;;;;;;;14.50;6.03;;;16.30;48.90;;;;;;5082427;28;20028;-80
2021/04/21 13:19:29;;;;;;;16.20;7.00;;;16.10;49.70;;;;;;5093843;28;20077;-79
2021/04/21 13:22:08;;;;;;;11.25;5.10;;;15.90;50.50;;;;;;5095480;28;20051;-79